createdAt,value
2018-02-19T00:02:28.927Z,5.80
2018-02-19T00:04:57.209Z,5.60
2018-02-19T00:07:26.306Z,5.70
2018-02-19T00:09:54.553Z,5.80
2018-02-19T00:12:23.609Z,6.10
2018-02-19T00:14:52.181Z,5.70
2018-02-19T00:17:20.435Z,6.10
2018-02-19T00:19:48.708Z,6.10
2018-02-19T00:22:17.004Z,5.70
2018-02-19T00:24:45.498Z,5.80
2018-02-19T00:27:14.003Z,5.60
2018-02-19T00:29:42.274Z,5.70
2018-02-19T00:32:10.530Z,5.70
2018-02-19T00:34:38.802Z,5.70
2018-02-19T00:37:08.706Z,5.90
2018-02-19T00:39:37.023Z,6.10
2018-02-19T00:42:05.268Z,5.90
2018-02-19T00:44:33.525Z,5.90
2018-02-19T00:47:03.557Z,5.80
2018-02-19T00:49:31.910Z,5.60
2018-02-19T00:52:01.005Z,5.60
2018-02-19T00:54:29.358Z,5.40
2018-02-19T00:56:57.614Z,5.50
2018-02-19T00:59:26.837Z,5.40
2018-02-19T01:01:55.965Z,5.60
2018-02-19T01:04:24.213Z,5.40
2018-02-19T01:06:53.229Z,5.40
2018-02-19T01:09:21.622Z,5.40
2018-02-19T01:11:49.869Z,5.40
2018-02-19T01:14:19.015Z,5.40
2018-02-19T01:16:47.294Z,5.50
2018-02-19T01:19:16.473Z,5.40
2018-02-19T01:21:44.829Z,5.60
2018-02-19T01:24:13.082Z,5.50
2018-02-19T01:26:42.233Z,5.50
2018-02-19T01:29:12.092Z,5.40
2018-02-19T01:31:41.142Z,5.40
2018-02-19T01:34:09.869Z,5.50
2018-02-19T01:36:38.205Z,5.40
2018-02-19T01:39:06.510Z,5.30
2018-02-19T01:41:34.770Z,5.40
2018-02-19T01:44:03.099Z,5.30
2018-02-19T01:46:31.487Z,5.40
2018-02-19T01:49:00.569Z,5.40
2018-02-19T01:51:28.904Z,5.40
2018-02-19T01:53:57.161Z,5.20
2018-02-19T01:56:27.019Z,5.40
2018-02-19T01:58:55.366Z,5.40
2018-02-19T02:01:23.661Z,5.20
2018-02-19T02:03:53.329Z,5.20
2018-02-19T02:06:21.596Z,5.10
2018-02-19T02:08:50.664Z,5.00
2018-02-19T02:11:19.873Z,4.90
2018-02-19T02:13:48.357Z,4.90
2018-02-19T02:16:17.612Z,5.00
2018-02-19T02:18:45.865Z,4.90
2018-02-19T02:21:14.157Z,5.00
2018-02-19T02:23:42.441Z,4.80
2018-02-19T02:26:10.668Z,4.90
2018-02-19T02:28:38.989Z,5.00
2018-02-19T02:31:08.240Z,4.80
2018-02-19T02:33:36.533Z,4.90
2018-02-19T02:36:04.825Z,4.80
2018-02-19T02:38:33.083Z,4.90
2018-02-19T02:41:01.336Z,4.80
2018-02-19T02:43:29.618Z,4.80
2018-02-19T02:45:57.870Z,5.00
2018-02-19T02:48:27.014Z,4.90
2018-02-19T02:50:55.726Z,4.90
2018-02-19T02:53:24.066Z,4.90
2018-02-19T02:55:52.447Z,4.80
2018-02-19T02:58:20.941Z,4.90
2018-02-19T03:00:49.280Z,4.90
2018-02-19T03:03:17.501Z,4.90
2018-02-19T03:05:45.870Z,4.90
2018-02-19T03:08:14.225Z,4.90
2018-02-19T03:10:42.509Z,4.80
2018-02-19T03:13:10.795Z,4.80
2018-02-19T03:15:39.065Z,4.90
2018-02-19T03:18:07.361Z,4.90
2018-02-19T03:20:35.632Z,4.90
2018-02-19T03:23:03.922Z,5.00
2018-02-19T03:25:32.177Z,4.90
2018-02-19T03:28:00.438Z,5.10
2018-02-19T03:30:29.635Z,4.90
2018-02-19T03:32:57.888Z,5.10
2018-02-19T03:35:26.147Z,4.80
2018-02-19T03:37:54.404Z,5.30
2018-02-19T03:40:22.813Z,5.10
2018-02-19T03:42:51.865Z,5.10
2018-02-19T03:45:21.041Z,5.20
2018-02-19T03:47:49.392Z,5.10
2018-02-19T03:50:17.765Z,5.20
2018-02-19T03:52:46.032Z,5.10
2018-02-19T03:55:14.290Z,5.30
2018-02-19T03:57:42.595Z,5.10
2018-02-19T04:00:10.826Z,5.10
2018-02-19T04:02:39.364Z,5.30
2018-02-19T04:05:07.588Z,5.10
2018-02-19T04:07:37.476Z,5.30
2018-02-19T04:10:05.754Z,5.20
2018-02-19T04:12:34.006Z,5.10
2018-02-19T04:15:03.527Z,5.20
2018-02-19T04:17:32.529Z,5.10
2018-02-19T04:20:00.782Z,5.10
2018-02-19T04:22:29.177Z,5.20
2018-02-19T04:24:58.017Z,5.10
2018-02-19T04:27:26.318Z,5.20
2018-02-19T04:29:55.551Z,5.20
2018-02-19T04:32:23.883Z,5.10
2018-02-19T04:34:53.016Z,5.20
2018-02-19T04:37:21.284Z,5.20
2018-02-19T04:39:49.546Z,5.10
2018-02-19T04:42:18.635Z,5.30
2018-02-19T04:44:54.617Z,5.10
2018-02-19T04:47:22.873Z,5.10
2018-02-19T04:49:51.190Z,5.10
2018-02-19T04:52:19.534Z,5.20
2018-02-19T04:54:47.801Z,5.10
2018-02-19T04:57:16.942Z,5.00
2018-02-19T04:59:45.192Z,5.00
2018-02-19T05:02:15.034Z,5.20
2018-02-19T05:04:43.435Z,5.10
2018-02-19T05:07:11.686Z,4.90
2018-02-19T05:09:39.940Z,4.90
2018-02-19T05:12:08.405Z,5.10
2018-02-19T05:14:37.517Z,4.90
2018-02-19T05:17:06.582Z,4.80
2018-02-19T05:19:35.721Z,4.80
2018-02-19T05:22:03.982Z,4.80
2018-02-19T05:24:32.250Z,4.80
2018-02-19T05:27:00.500Z,5.00
2018-02-19T05:29:28.816Z,4.90
2018-02-19T05:31:58.698Z,4.70
2018-02-19T05:34:27.005Z,4.60
2018-02-19T05:36:55.349Z,4.70
2018-02-19T05:39:23.734Z,4.70
2018-02-19T05:41:52.850Z,4.60
2018-02-19T05:44:21.933Z,4.80
2018-02-19T05:46:50.234Z,4.70
2018-02-19T05:49:18.493Z,4.80
2018-02-19T05:51:46.796Z,4.80
2018-02-19T05:54:15.078Z,4.80
2018-02-19T05:56:43.305Z,4.70
2018-02-19T05:59:12.321Z,4.70
2018-02-19T06:01:40.722Z,4.70
2018-02-19T06:04:09.073Z,4.80
2018-02-19T06:06:38.239Z,4.70
2018-02-19T06:09:06.531Z,4.80
2018-02-19T06:11:35.642Z,4.70
2018-02-19T06:14:04.669Z,4.70
2018-02-19T06:16:33.003Z,4.70
2018-02-19T06:19:01.369Z,4.90
2018-02-19T06:21:29.581Z,4.70
2018-02-19T06:23:57.961Z,4.70
2018-02-19T06:26:26.305Z,5.00
2018-02-19T06:28:54.534Z,4.80
2018-02-19T06:31:22.787Z,4.90
2018-02-19T06:33:51.073Z,4.60
2018-02-19T06:36:19.321Z,4.80
2018-02-19T06:38:48.398Z,4.70
2018-02-19T06:41:16.629Z,4.90
2018-02-19T06:43:44.998Z,4.70
2018-02-19T06:46:13.360Z,4.80
2018-02-19T06:48:41.619Z,4.80
2018-02-19T06:51:10.780Z,4.70
2018-02-19T06:53:39.037Z,4.90
2018-02-19T06:56:07.290Z,4.70
2018-02-19T06:58:35.763Z,4.90
2018-02-19T07:01:03.997Z,4.90
2018-02-19T07:03:32.247Z,5.00
2018-02-19T07:06:00.708Z,5.00
2018-02-19T07:08:28.971Z,5.10
2018-02-19T07:10:57.322Z,5.00
2018-02-19T07:13:26.382Z,5.00
2018-02-19T07:15:54.703Z,5.00
2018-02-19T07:18:22.969Z,5.10
2018-02-19T07:20:51.247Z,4.80
2018-02-19T07:23:20.082Z,4.90
2018-02-19T07:25:49.909Z,4.90
2018-02-19T07:28:18.224Z,5.00
2018-02-19T07:30:49.009Z,5.00
2018-02-19T07:33:18.361Z,4.90
2018-02-19T07:35:47.509Z,5.10
2018-02-19T07:38:15.938Z,4.90
2018-02-19T07:40:44.172Z,4.90
2018-02-19T07:43:12.425Z,4.90
2018-02-19T07:45:40.669Z,4.80
2018-02-19T07:48:09.044Z,5.30
2018-02-19T07:50:37.303Z,5.20
2018-02-19T07:53:05.553Z,5.10
2018-02-19T07:55:33.816Z,5.10
2018-02-19T07:58:02.962Z,5.10
2018-02-19T08:00:31.226Z,5.10
2018-02-19T08:02:59.487Z,5.00
2018-02-19T08:05:28.004Z,5.00
2018-02-19T08:07:56.309Z,5.10
2018-02-19T08:10:24.681Z,5.10
2018-02-19T08:12:52.948Z,5.20
2018-02-19T08:15:21.954Z,5.10
2018-02-19T08:17:50.380Z,5.10
2018-02-19T08:20:18.630Z,5.30
2018-02-19T08:22:46.870Z,5.10
2018-02-19T08:25:16.025Z,5.40
2018-02-19T08:27:44.331Z,5.50
2018-02-19T08:30:12.538Z,5.40
2018-02-19T08:32:40.786Z,5.60
2018-02-19T08:35:10.753Z,5.40
2018-02-19T08:37:38.992Z,5.40
2018-02-19T08:40:07.273Z,5.40
2018-02-19T08:42:35.523Z,5.40
2018-02-19T08:45:08.237Z,5.40
2018-02-19T08:47:36.486Z,5.50
2018-02-19T08:50:04.912Z,5.60
2018-02-19T08:52:33.168Z,5.70
2018-02-19T08:55:01.457Z,6.00
2018-02-19T08:57:29.788Z,6.40
2018-02-19T08:59:58.343Z,6.40
2018-02-19T09:02:26.701Z,6.00
2018-02-19T09:04:55.033Z,6.30
2018-02-19T09:07:23.321Z,6.40
2018-02-19T09:09:51.595Z,6.30
2018-02-19T09:12:20.293Z,6.40
2018-02-19T09:14:48.566Z,6.40
2018-02-19T09:17:16.935Z,6.40
2018-02-19T09:19:46.057Z,6.40
2018-02-19T09:22:14.331Z,6.10
2018-02-19T09:24:42.616Z,6.50
2018-02-19T09:27:12.859Z,6.40
2018-02-19T09:29:41.204Z,6.30
2018-02-19T09:32:11.335Z,6.30
2018-02-19T09:34:40.692Z,6.30
2018-02-19T09:37:09.266Z,6.40
2018-02-19T09:39:37.613Z,6.30
2018-02-19T09:42:07.814Z,6.30
2018-02-19T09:44:36.314Z,6.50
2018-02-19T09:47:09.186Z,6.40
2018-02-19T09:49:39.254Z,6.70
2018-02-19T09:52:07.666Z,6.70
2018-02-19T09:54:36.042Z,6.70
2018-02-19T09:57:04.403Z,6.60
2018-02-19T09:59:34.269Z,7.00
2018-02-19T10:02:02.552Z,7.00
2018-02-19T10:04:30.970Z,7.00
2018-02-19T10:07:00.093Z,7.00
2018-02-19T10:09:29.159Z,6.80
2018-02-19T10:11:57.443Z,6.90
2018-02-19T10:14:26.549Z,7.00
2018-02-19T10:16:54.842Z,7.20
2018-02-19T10:19:23.106Z,7.10
2018-02-19T10:21:51.466Z,7.10
2018-02-19T10:24:19.738Z,7.40
2018-02-19T10:26:47.953Z,7.50
2018-02-19T10:29:16.204Z,7.50
2018-02-19T10:31:45.208Z,7.40
2018-02-19T10:34:13.690Z,7.70
2018-02-19T10:36:43.062Z,7.70
2018-02-19T10:39:11.517Z,7.90
2018-02-19T10:41:40.694Z,8.10
2018-02-19T10:44:09.077Z,8.20
2018-02-19T10:46:37.498Z,8.40
2018-02-19T10:49:05.972Z,8.90
2018-02-19T10:51:34.354Z,8.90
2018-02-19T10:54:02.710Z,8.60
2018-02-19T10:56:31.832Z,8.30
2018-02-19T10:59:00.215Z,8.50
2018-02-19T11:01:28.606Z,8.50
2018-02-19T11:03:57.645Z,8.80
2018-02-19T11:06:26.402Z,8.60
2018-02-19T11:08:55.713Z,8.80
2018-02-19T11:11:24.157Z,8.90
2018-02-19T11:13:52.928Z,8.90
2018-02-19T11:16:21.533Z,8.90
2018-02-19T11:18:49.998Z,9.00
2018-02-19T11:21:18.344Z,8.90
2018-02-19T11:23:47.259Z,9.10
2018-02-19T11:26:16.326Z,9.10
2018-02-19T11:28:44.804Z,9.20
2018-02-19T11:31:17.334Z,9.30
2018-02-19T11:33:45.675Z,9.20
2018-02-19T11:36:14.275Z,9.20
2018-02-19T11:38:42.587Z,9.10
2018-02-19T11:41:10.997Z,8.90
2018-02-19T11:43:39.271Z,8.90
2018-02-19T11:46:07.561Z,8.70
2018-02-19T11:48:35.807Z,8.60
2018-02-19T11:51:04.839Z,8.60
2018-02-19T11:53:33.209Z,8.50
2018-02-19T11:56:07.154Z,8.50
2018-02-19T11:58:37.128Z,8.60
2018-02-19T12:01:05.646Z,8.40
2018-02-19T12:03:34.457Z,8.60
2018-02-19T12:06:04.465Z,8.40
2018-02-19T12:08:33.037Z,8.60
2018-02-19T12:11:02.363Z,8.50
2018-02-19T12:13:30.726Z,8.60
2018-02-19T12:15:59.912Z,8.80
2018-02-19T12:18:33.716Z,8.80
2018-02-19T12:21:02.118Z,8.60
2018-02-19T12:23:31.229Z,8.60
2018-02-19T12:26:00.483Z,8.60
2018-02-19T12:28:28.853Z,8.60
2018-02-19T12:30:57.582Z,8.60
2018-02-19T12:33:25.987Z,8.40
2018-02-19T12:35:54.209Z,8.50
2018-02-19T12:38:23.225Z,8.70
2018-02-19T12:40:51.481Z,8.80
2018-02-19T12:43:19.961Z,8.80
2018-02-19T12:45:48.653Z,8.80
2018-02-19T12:48:17.049Z,8.90
2018-02-19T12:50:45.317Z,8.80
2018-02-19T12:53:14.426Z,8.90
2018-02-19T12:55:42.676Z,8.90
2018-02-19T12:58:11.005Z,8.90
2018-02-19T13:00:43.766Z,8.80
2018-02-19T13:03:16.779Z,9.10
2018-02-19T13:05:45.343Z,9.20
2018-02-19T13:08:13.650Z,9.00
2018-02-19T13:10:43.109Z,9.00
2018-02-19T13:13:12.045Z,9.20
2018-02-19T13:15:49.316Z,9.10
2018-02-19T13:18:18.792Z,9.30
2018-02-19T13:20:47.455Z,9.50
2018-02-19T13:23:15.728Z,9.40
2018-02-19T13:25:44.003Z,9.20
2018-02-19T13:28:12.225Z,9.10
2018-02-19T13:30:40.663Z,8.80
2018-02-19T13:33:08.939Z,8.80
2018-02-19T13:35:37.242Z,8.80
2018-02-19T13:38:05.495Z,8.90
2018-02-19T13:40:34.637Z,9.00
2018-02-19T13:43:02.879Z,9.00
2018-02-19T13:45:32.059Z,9.10
2018-02-19T13:48:00.604Z,9.30
2018-02-19T13:50:28.825Z,9.30
2018-02-19T13:52:57.577Z,9.30
2018-02-19T13:55:25.917Z,9.30
2018-02-19T13:57:54.217Z,9.20
2018-02-19T14:00:22.506Z,9.10
2018-02-19T14:02:52.366Z,9.30
2018-02-19T14:05:21.727Z,9.40
2018-02-19T14:07:49.966Z,9.20
2018-02-19T14:10:18.204Z,9.20
2018-02-19T14:12:46.545Z,9.30
2018-02-19T14:15:14.794Z,9.20
2018-02-19T14:17:43.882Z,9.10
2018-02-19T14:20:12.589Z,9.00
2018-02-19T14:22:40.914Z,9.20
2018-02-19T14:25:09.192Z,9.30
2018-02-19T14:27:37.388Z,9.30
2018-02-19T14:30:06.562Z,9.30
2018-02-19T14:32:35.378Z,9.50
2018-02-19T14:35:03.651Z,9.40
2018-02-19T14:37:32.661Z,9.50
2018-02-19T14:40:01.102Z,9.00
2018-02-19T14:42:29.331Z,9.20
2018-02-19T14:44:57.599Z,9.40
2018-02-19T14:47:25.880Z,9.10
2018-02-19T14:49:54.136Z,9.10
2018-02-19T14:52:22.382Z,9.30
2018-02-19T14:54:50.662Z,9.30
2018-02-19T14:57:19.669Z,9.20
2018-02-19T14:59:47.937Z,9.40
2018-02-19T15:02:16.207Z,9.50
2018-02-19T15:04:46.116Z,9.50
2018-02-19T15:07:14.318Z,9.50
2018-02-19T15:09:42.622Z,9.40
2018-02-19T15:12:10.882Z,9.50
2018-02-19T15:14:39.166Z,9.40
2018-02-19T15:17:07.612Z,9.60
2018-02-19T15:19:36.738Z,9.50
2018-02-19T15:22:05.072Z,9.80
2018-02-19T15:24:34.077Z,9.50
2018-02-19T15:27:03.178Z,9.50
2018-02-19T15:29:32.310Z,9.50
2018-02-19T15:32:01.411Z,9.40
2018-02-19T15:34:29.774Z,9.50
2018-02-19T15:36:58.054Z,9.50
2018-02-19T15:39:26.500Z,9.40
2018-02-19T15:41:55.171Z,9.30
2018-02-19T15:44:23.417Z,9.40
2018-02-19T15:46:51.684Z,9.50
2018-02-19T15:49:19.929Z,9.30
2018-02-19T15:51:48.315Z,9.10
2018-02-19T15:54:17.532Z,9.40
2018-02-19T15:56:45.810Z,9.50
2018-02-19T15:59:14.132Z,9.50
2018-02-19T16:01:42.333Z,9.50
2018-02-19T16:04:10.609Z,9.50
2018-02-19T16:06:39.610Z,9.50
2018-02-19T16:09:08.669Z,9.60
2018-02-19T16:11:37.021Z,9.50
2018-02-19T16:14:05.306Z,9.50
2018-02-19T16:16:33.557Z,9.40
2018-02-19T16:19:01.844Z,9.50
2018-02-19T16:21:30.919Z,9.50
2018-02-19T16:23:59.252Z,9.50
2018-02-19T16:26:27.457Z,9.20
2018-02-19T16:29:00.270Z,9.50
2018-02-19T16:31:28.516Z,9.50
2018-02-19T16:33:57.501Z,9.20
2018-02-19T16:36:25.966Z,9.00
2018-02-19T16:38:54.195Z,9.10
2018-02-19T16:41:22.437Z,8.80
2018-02-19T16:43:50.744Z,9.00
2018-02-19T16:46:19.228Z,8.80
2018-02-19T16:48:47.562Z,8.90
2018-02-19T16:51:16.704Z,9.00
2018-02-19T16:53:44.955Z,9.00
2018-02-19T16:56:13.212Z,9.10
2018-02-19T16:58:42.304Z,9.40
2018-02-19T17:01:11.402Z,9.10
2018-02-19T17:03:40.531Z,9.50
2018-02-19T17:06:08.814Z,9.30
2018-02-19T17:08:37.124Z,9.50
2018-02-19T17:11:05.362Z,9.20
2018-02-19T17:13:37.738Z,9.40
2018-02-19T17:16:06.079Z,9.10
2018-02-19T17:18:34.314Z,9.10
2018-02-19T17:21:02.549Z,9.10
2018-02-19T17:23:30.811Z,9.10
2018-02-19T17:25:59.057Z,9.20
2018-02-19T17:28:28.078Z,9.10
2018-02-19T17:30:57.263Z,9.10
2018-02-19T17:33:25.582Z,9.20
2018-02-19T17:35:54.422Z,9.00
2018-02-19T17:38:22.663Z,8.80
2018-02-19T17:40:50.932Z,8.40
2018-02-19T17:43:19.176Z,8.70
2018-02-19T17:45:47.439Z,8.80
2018-02-19T17:48:16.563Z,8.40
2018-02-19T17:50:44.820Z,8.70
2018-02-19T17:53:14.800Z,8.40
2018-02-19T17:55:43.112Z,8.10
2018-02-19T17:58:11.318Z,8.10
2018-02-19T18:00:39.607Z,8.50
2018-02-19T18:03:07.866Z,8.50
2018-02-19T18:05:40.092Z,8.20
2018-02-19T18:08:09.074Z,8.10
2018-02-19T18:10:37.358Z,8.30
2018-02-19T18:13:06.599Z,8.50
2018-02-19T18:15:34.846Z,8.20
2018-02-19T18:18:03.101Z,8.10
2018-02-19T18:20:31.514Z,8.30
2018-02-19T18:22:59.776Z,8.10
2018-02-19T18:25:28.970Z,8.10
2018-02-19T18:27:57.273Z,8.10
2018-02-19T18:30:25.545Z,8.30
2018-02-19T18:32:54.136Z,8.10
2018-02-19T18:35:22.389Z,8.10
2018-02-19T18:37:50.930Z,8.20
2018-02-19T18:40:19.194Z,8.20
2018-02-19T18:42:47.478Z,8.20
2018-02-19T18:45:15.767Z,8.10
2018-02-19T18:47:44.449Z,8.40
2018-02-19T18:50:12.678Z,8.40
2018-02-19T18:52:40.987Z,8.30
2018-02-19T18:55:09.229Z,8.60
2018-02-19T18:57:37.672Z,8.80
2018-02-19T19:00:06.034Z,8.80
2018-02-19T19:02:34.325Z,8.40
2018-02-19T19:05:03.579Z,8.60
2018-02-19T19:07:43.657Z,8.40
2018-02-19T19:10:23.831Z,8.40
2018-02-19T19:12:52.841Z,8.60
2018-02-19T19:15:21.865Z,8.50
2018-02-19T19:17:50.439Z,8.40
2018-02-19T19:20:19.703Z,8.50
2018-02-19T19:22:48.622Z,8.30
2018-02-19T19:25:17.244Z,8.30
2018-02-19T19:27:45.530Z,8.10
2018-02-19T19:30:13.861Z,8.10
2018-02-19T19:32:42.145Z,8.20
2018-02-19T19:35:10.593Z,8.20
2018-02-19T19:37:39.846Z,8.10
2018-02-19T19:40:08.086Z,8.10
2018-02-19T19:42:36.378Z,8.10
2018-02-19T19:45:04.655Z,8.10
2018-02-19T19:47:32.922Z,8.00
2018-02-19T19:50:01.209Z,8.10
2018-02-19T19:52:29.697Z,8.00
2018-02-19T19:54:58.002Z,7.80
2018-02-19T19:57:26.251Z,7.70
2018-02-19T19:59:54.558Z,7.80
2018-02-19T20:02:22.797Z,7.80
2018-02-19T20:04:51.103Z,7.70
2018-02-19T20:07:19.394Z,7.90
2018-02-19T20:09:47.674Z,7.80
2018-02-19T20:12:15.933Z,8.00
2018-02-19T20:14:44.193Z,7.80
2018-02-19T20:17:12.513Z,7.80
2018-02-19T20:19:41.527Z,7.80
2018-02-19T20:22:10.642Z,7.70
2018-02-19T20:24:39.748Z,7.90
2018-02-19T20:27:08.119Z,7.70
2018-02-19T20:29:36.618Z,7.80
2018-02-19T20:32:05.710Z,7.80
2018-02-19T20:34:33.953Z,7.60
2018-02-19T20:37:03.178Z,7.70
2018-02-19T20:39:32.184Z,7.60
2018-02-19T20:42:00.542Z,7.60
2018-02-19T20:44:28.777Z,7.50
2018-02-19T20:46:57.930Z,7.50
2018-02-19T20:49:26.183Z,7.40
2018-02-19T20:51:54.470Z,7.40
2018-02-19T20:54:22.742Z,7.50
2018-02-19T20:56:51.125Z,7.60
2018-02-19T20:59:19.766Z,7.40
2018-02-19T21:01:47.977Z,7.50
2018-02-19T21:04:16.233Z,7.50
2018-02-19T21:06:45.249Z,7.20
2018-02-19T21:09:14.100Z,7.30
2018-02-19T21:11:42.376Z,7.30
2018-02-19T21:14:10.623Z,7.30
2018-02-19T21:16:39.084Z,7.40
2018-02-19T21:19:08.395Z,7.30
2018-02-19T21:21:37.576Z,7.10
2018-02-19T21:24:05.934Z,7.10
2018-02-19T21:26:34.225Z,7.10
2018-02-19T21:29:02.491Z,7.40
2018-02-19T21:31:31.602Z,7.50
2018-02-19T21:33:59.871Z,7.50
2018-02-19T21:36:28.210Z,7.40
2018-02-19T21:38:58.760Z,7.50
2018-02-19T21:41:27.386Z,7.50
2018-02-19T21:46:46.964Z,7.50
2018-02-19T21:49:15.954Z,7.40
2018-02-19T21:51:54.028Z,7.50
2018-02-19T21:54:29.838Z,7.20
2018-02-19T21:57:14.835Z,7.30
2018-02-19T21:59:45.300Z,7.20
2018-02-19T22:02:27.619Z,7.20
2018-02-19T22:05:05.836Z,6.90
2018-02-19T22:07:47.608Z,7.00
2018-02-19T22:10:22.072Z,6.80
2018-02-19T22:12:52.182Z,7.00
2018-02-19T22:15:23.013Z,6.60
2018-02-19T22:17:52.558Z,6.70
2018-02-19T22:20:21.292Z,6.70
2018-02-19T22:22:51.570Z,6.70
2018-02-19T22:25:29.046Z,6.70
2018-02-19T22:28:05.898Z,6.70
2018-02-19T22:30:40.602Z,6.60
2018-02-19T22:33:08.866Z,6.70
2018-02-19T22:35:37.223Z,6.30
2018-02-19T22:38:05.665Z,6.50
2018-02-19T22:40:33.958Z,6.40
2018-02-19T22:43:02.198Z,6.40
2018-02-19T22:45:30.625Z,6.40
2018-02-19T22:47:58.899Z,6.30
2018-02-19T22:50:27.148Z,6.40
2018-02-19T22:52:55.488Z,6.40
2018-02-19T22:55:24.019Z,6.40
2018-02-19T22:57:52.306Z,6.40
2018-02-19T23:00:20.563Z,6.40
2018-02-19T23:02:48.834Z,6.10
2018-02-19T23:05:17.174Z,6.20
2018-02-19T23:07:45.578Z,6.20
2018-02-19T23:10:13.890Z,6.00
2018-02-19T23:12:42.141Z,6.20
2018-02-19T23:15:10.409Z,6.20
2018-02-19T23:17:38.742Z,6.30
2018-02-19T23:20:07.900Z,6.40
2018-02-19T23:22:36.169Z,6.50
2018-02-19T23:25:04.425Z,6.10
2018-02-19T23:27:32.809Z,6.10
2018-02-19T23:30:01.078Z,6.20
2018-02-19T23:32:29.320Z,6.20
2018-02-19T23:35:02.371Z,5.90
2018-02-19T23:37:26.594Z,6.10
2018-02-19T23:39:54.969Z,6.10
2018-02-19T23:42:23.287Z,6.10
2018-02-19T23:44:51.539Z,6.20
2018-02-19T23:47:20.628Z,5.70
2018-02-19T23:49:49.741Z,5.70
2018-02-19T23:52:18.006Z,5.90
2018-02-19T23:54:46.285Z,6.00
2018-02-19T23:57:15.399Z,5.90
2018-02-19T23:59:43.661Z,6.00
